Time;durP1;ratioP1;P1;durP2;ratioP2;P2;SDS_P1;SDS_P2;PMS_P1;PMS_P2;Temp;Humidity;BMP_temperature;BMP_pressure;BME280_temperature;BME280_humidity;BME280_pressure;Samples;Min_cycle;Max_cycle;Signal;HPM_P1;HPM_P2
2022/09/02 00:01:18;;;;;;;3.83;2.63;;;23.70;1.00;;;;;;5033477;28;20026;-53
2022/09/02 00:03:45;;;;;;;3.63;2.35;;;23.70;1.00;;;;;;5019934;28;20029;-53
2022/09/02 00:06:11;;;;;;;7.32;2.50;;;23.60;1.00;;;;;;5033662;28;20481;-56
2022/09/02 00:08:38;;;;;;;5.55;2.50;;;23.60;1.00;;;;;;5032662;28;20093;-57
2022/09/02 00:11:05;;;;;;;4.65;2.25;;;23.50;1.00;;;;;;5030327;28;20041;-56
2022/09/02 00:13:32;;;;;;;3.92;2.38;;;23.50;1.00;;;;;;5033584;28;20017;-56
2022/09/02 00:15:58;;;;;;;5.72;2.20;;;23.70;1.00;;;;;;5037694;28;20044;-57
2022/09/02 00:18:25;;;;;;;3.83;2.30;;;23.50;1.00;;;;;;5032862;28;20383;-57
2022/09/02 00:20:52;;;;;;;4.97;2.20;;;23.60;1.00;;;;;;5032137;28;20048;-56
2022/09/02 00:23:17;;;;;;;3.97;2.20;;;23.50;1.00;;;;;;5033744;28;20033;-58
2022/09/02 00:25:44;;;;;;;3.95;2.10;;;23.60;1.00;;;;;;5038340;28;20033;-56
2022/09/02 00:28:11;;;;;;;3.00;2.28;;;23.70;1.00;;;;;;5015265;28;20430;-56
2022/09/02 00:30:38;;;;;;;6.30;2.63;;;23.50;1.00;;;;;;5036171;28;20124;-55
2022/09/02 00:33:11;;;;;;;4.97;2.45;;;23.60;1.00;;;;;;5033538;28;20039;-55
2022/09/02 00:35:37;;;;;;;4.32;2.75;;;23.60;1.00;;;;;;5031880;28;20112;-55
2022/09/02 00:38:05;;;;;;;3.50;2.65;;;23.60;1.00;;;;;;5033549;28;20479;-55
2022/09/02 00:44:02;;;;;;;6.65;2.33;;;23.70;1.00;;;;;;5026119;28;20099;-52
2022/09/02 00:46:30;;;;;;;2.75;2.53;;;23.70;1.00;;;;;;5032704;28;20378;-53
2022/09/02 00:49:17;;;;;;;5.28;3.00;;;23.70;1.00;;;;;;5033163;28;20037;-53
2022/09/02 00:51:48;;;;;;;4.03;2.25;;;23.70;1.00;;;;;;5035181;28;20467;-54
2022/09/02 00:54:16;;;;;;;6.20;2.40;;;23.70;1.00;;;;;;5033041;28;20022;-55
2022/09/02 00:56:45;;;;;;;3.65;2.10;;;23.50;1.00;;;;;;5036261;28;20025;-54
2022/09/02 00:59:21;;;;;;;4.47;2.88;;;23.60;1.00;;;;;;5033071;28;20383;-53
2022/09/02 01:01:47;;;;;;;4.20;2.63;;;23.60;1.00;;;;;;5036862;28;20025;-56
2022/09/02 01:04:13;;;;;;;6.85;3.05;;;23.60;1.00;;;;;;5031601;28;20026;-53
2022/09/02 01:06:39;;;;;;;5.72;2.92;;;23.50;1.00;;;;;;5036751;28;20467;-56
2022/09/02 01:09:10;;;;;;;6.25;2.70;;;23.60;1.00;;;;;;5033731;28;20091;-55
2022/09/02 01:11:41;;;;;;;3.85;2.78;;;23.50;1.00;;;;;;5022906;28;20025;-55
2022/09/02 01:14:08;;;;;;;3.85;2.20;;;23.60;1.00;;;;;;5033024;28;20025;-57
2022/09/02 01:16:41;;;;;;;8.27;2.90;;;23.60;1.00;;;;;;5033637;28;20018;-56
2022/09/02 01:19:18;;;;;;;7.75;2.58;;;23.40;1.00;;;;;;5032821;28;20449;-55
2022/09/02 01:21:47;;;;;;;5.38;2.50;;;23.50;1.00;;;;;;5032130;28;20120;-56
2022/09/02 01:24:13;;;;;;;5.45;2.40;;;23.50;1.00;;;;;;5032620;28;20025;-54
2022/09/02 01:26:38;;;;;;;5.57;2.80;;;23.30;1.00;;;;;;5035147;28;20060;-53
2022/09/02 01:29:04;;;;;;;2.65;2.15;;;23.40;1.00;;;;;;5032336;28;20083;-55
2022/09/02 01:31:30;;;;;;;3.55;2.15;;;23.40;1.00;;;;;;5033078;28;20447;-55
2022/09/02 01:33:56;;;;;;;6.97;2.58;;;23.30;1.00;;;;;;5031713;28;20040;-56
2022/09/02 01:36:22;;;;;;;3.30;2.63;;;23.30;1.00;;;;;;5030792;28;20041;-54
2022/09/02 01:38:48;;;;;;;4.10;2.10;;;23.20;1.00;;;;;;5030332;28;20064;-55
2022/09/02 01:41:13;;;;;;;5.85;2.30;;;23.30;1.00;;;;;;5033764;28;20025;-56
2022/09/02 01:43:39;;;;;;;3.65;2.45;;;23.10;1.00;;;;;;5032941;28;20030;-55
2022/09/02 01:46:05;;;;;;;6.60;2.67;;;23.20;1.00;;;;;;5037828;28;20029;-55
2022/09/02 01:48:30;;;;;;;4.75;2.30;;;23.30;1.00;;;;;;5036077;28;20040;-56
2022/09/02 01:51:02;;;;;;;2.88;2.15;;;23.30;1.00;;;;;;5026525;28;20061;-56
2022/09/02 01:53:28;;;;;;;3.67;2.28;;;23.20;1.00;;;;;;5025925;28;20109;-52
2022/09/02 01:55:54;;;;;;;5.43;2.33;;;23.20;1.00;;;;;;5030638;28;20048;-56
2022/09/02 01:58:21;;;;;;;4.55;2.15;;;23.20;1.00;;;;;;5031717;28;20100;-55
2022/09/02 02:00:47;;;;;;;6.65;2.72;;;23.30;1.00;;;;;;5032343;28;20371;-55
2022/09/02 02:03:13;;;;;;;4.43;2.45;;;23.20;1.00;;;;;;5039416;28;20025;-51
2022/09/02 02:05:39;;;;;;;3.65;2.20;;;23.10;1.00;;;;;;5030919;28;20120;-55
2022/09/02 02:08:08;;;;;;;5.03;2.72;;;23.20;1.00;;;;;;5031051;28;20076;-53
2022/09/02 02:10:34;;;;;;;3.88;1.98;;;23.10;1.00;;;;;;5032186;28;20037;-56
2022/09/02 02:13:01;;;;;;;5.45;2.28;;;23.10;1.00;;;;;;5031235;28;20083;-56
2022/09/02 02:15:27;;;;;;;2.70;1.65;;;23.10;1.00;;;;;;5031068;28;20033;-56
2022/09/02 02:17:52;;;;;;;4.43;2.10;;;23.20;1.00;;;;;;5042520;28;20033;-54
2022/09/02 02:20:19;;;;;;;4.00;1.90;;;23.10;1.00;;;;;;5030857;28;20076;-55
2022/09/02 02:22:45;;;;;;;3.20;1.90;;;23.20;1.00;;;;;;5032180;28;20033;-57
2022/09/02 02:25:14;;;;;;;3.38;2.28;;;23.20;1.00;;;;;;5041966;28;20540;-56
2022/09/02 02:27:40;;;;;;;4.90;1.85;;;23.20;1.00;;;;;;5034642;28;20017;-56
2022/09/02 02:30:07;;;;;;;3.17;2.08;;;23.20;1.00;;;;;;5045270;28;20395;-56
2022/09/02 02:32:32;;;;;;;2.50;1.80;;;23.20;1.00;;;;;;5031894;28;20099;-56
2022/09/02 02:34:58;;;;;;;2.00;1.80;;;23.20;1.00;;;;;;5030851;28;20467;-56
2022/09/02 02:37:24;;;;;;;3.63;1.52;;;23.30;1.00;;;;;;5031939;28;20116;-56
2022/09/02 02:39:50;;;;;;;1.83;1.70;;;23.30;1.00;;;;;;5030061;28;20113;-56
2022/09/02 02:42:16;;;;;;;2.15;1.65;;;23.40;1.00;;;;;;5032703;28;20108;-55
2022/09/02 02:44:42;;;;;;;6.65;2.03;;;23.20;1.00;;;;;;5040398;28;20111;-56
2022/09/02 02:47:08;;;;;;;3.40;1.92;;;23.30;1.00;;;;;;5035643;28;20376;-57
2022/09/02 02:49:39;;;;;;;2.25;1.90;;;23.40;1.00;;;;;;5034836;28;20369;-55
2022/09/02 02:52:05;;;;;;;5.55;2.45;;;23.20;1.00;;;;;;5035014;28;20128;-53
2022/09/02 02:54:31;;;;;;;3.25;1.95;;;23.10;1.00;;;;;;5034874;28;20037;-55
2022/09/02 02:56:56;;;;;;;3.03;2.13;;;23.20;1.00;;;;;;5034016;28;20075;-56
2022/09/02 02:59:22;;;;;;;5.28;2.03;;;23.20;1.00;;;;;;5034579;28;20021;-55
2022/09/02 03:01:47;;;;;;;3.42;1.70;;;23.20;1.00;;;;;;5035520;28;20475;-55
2022/09/02 03:04:13;;;;;;;2.78;2.13;;;23.20;1.00;;;;;;5034281;28;20029;-55
2022/09/02 03:06:39;;;;;;;6.53;2.05;;;23.30;1.00;;;;;;5035181;28;20383;-56
2022/09/02 03:09:05;;;;;;;3.85;1.83;;;23.30;1.00;;;;;;5042900;28;20115;-52
2022/09/02 03:11:30;;;;;;;4.15;2.45;;;23.20;1.00;;;;;;5035169;28;20383;-56
2022/09/02 03:13:56;;;;;;;3.70;1.90;;;23.20;1.00;;;;;;5034339;28;20021;-54
2022/09/02 03:16:22;;;;;;;3.85;2.13;;;23.30;1.00;;;;;;5035108;28;20031;-53
2022/09/02 03:18:49;;;;;;;4.75;1.77;;;23.20;1.00;;;;;;5038696;28;20375;-53
2022/09/02 03:21:14;;;;;;;3.80;1.52;;;23.20;1.00;;;;;;5037048;28;20029;-53
2022/09/02 03:23:41;;;;;;;2.90;2.13;;;23.30;1.00;;;;;;5036438;28;20021;-56
2022/09/02 03:26:12;;;;;;;6.28;2.00;;;23.20;1.00;;;;;;5038932;28;20391;-53
2022/09/02 03:28:38;;;;;;;3.92;2.05;;;23.30;1.00;;;;;;5035803;28;20144;-51
2022/09/02 03:31:04;;;;;;;3.10;2.22;;;23.30;1.00;;;;;;5039042;28;20439;-53
2022/09/02 03:33:31;;;;;;;2.50;1.70;;;23.30;1.00;;;;;;5034122;28;20025;-54
2022/09/02 03:35:56;;;;;;;2.17;1.75;;;23.20;1.00;;;;;;5042117;28;20375;-55
2022/09/02 03:38:22;;;;;;;2.58;1.70;;;23.10;1.00;;;;;;5033874;28;20024;-54
2022/09/02 03:40:48;;;;;;;3.15;2.15;;;23.00;1.00;;;;;;5043402;28;20522;-55
2022/09/02 03:43:13;;;;;;;1.98;1.80;;;23.10;1.00;;;;;;5033204;28;20317;-52
2022/09/02 03:45:40;;;;;;;2.83;1.80;;;23.20;1.00;;;;;;5042689;28;20025;-54
2022/09/02 03:48:07;;;;;;;2.10;1.80;;;23.20;1.00;;;;;;5033125;28;20433;-56
2022/09/02 03:50:38;;;;;;;2.10;1.90;;;23.20;1.00;;;;;;5043213;28;20126;-53
2022/09/02 03:53:06;;;;;;;3.47;2.17;;;23.20;1.00;;;;;;5033159;28;20036;-55
2022/09/02 03:55:32;;;;;;;2.88;1.75;;;23.20;1.00;;;;;;5043923;28;20057;-53
2022/09/02 03:57:58;;;;;;;2.30;2.00;;;23.20;1.00;;;;;;5034289;28;20045;-54
2022/09/02 04:00:28;;;;;;;3.58;2.30;;;23.20;1.00;;;;;;5033352;28;20048;-53
2022/09/02 04:02:55;;;;;;;3.70;2.22;;;23.20;1.00;;;;;;5034447;28;20159;-55
2022/09/02 04:05:22;;;;;;;3.58;2.22;;;23.20;1.00;;;;;;5033332;28;20041;-52
2022/09/02 04:07:50;;;;;;;2.75;2.10;;;23.10;1.00;;;;;;5034141;28;20116;-51
2022/09/02 04:10:16;;;;;;;5.00;2.10;;;23.10;1.00;;;;;;5034625;28;20029;-53
2022/09/02 04:12:42;;;;;;;3.83;2.20;;;23.00;1.00;;;;;;5033970;28;20144;-52
2022/09/02 04:15:10;;;;;;;4.07;2.40;;;23.00;1.00;;;;;;5032788;28;20032;-52
2022/09/02 04:17:38;;;;;;;6.10;2.15;;;23.00;1.00;;;;;;5033807;28;20506;-53
2022/09/02 04:20:06;;;;;;;4.70;2.58;;;23.00;1.00;;;;;;5035890;28;20504;-51
2022/09/02 04:22:32;;;;;;;2.05;1.77;;;23.10;1.00;;;;;;5034054;28;20083;-52
2022/09/02 04:24:58;;;;;;;2.30;2.10;;;23.10;1.00;;;;;;5038530;28;20026;-54
2022/09/02 04:27:25;;;;;;;2.40;2.10;;;23.00;1.00;;;;;;5039575;28;20065;-50
2022/09/02 04:29:50;;;;;;;3.92;2.38;;;23.00;1.00;;;;;;5038407;28;20347;-56
2022/09/02 04:32:16;;;;;;;3.25;2.20;;;22.90;1.00;;;;;;5033668;28;20025;-55
2022/09/02 04:34:42;;;;;;;5.05;2.10;;;22.90;1.00;;;;;;5032598;28;20033;-54
2022/09/02 04:37:08;;;;;;;3.78;2.30;;;22.90;1.00;;;;;;5033516;28;20048;-52
2022/09/02 04:39:33;;;;;;;5.20;2.20;;;22.90;1.00;;;;;;5029798;28;20040;-53
2022/09/02 04:41:59;;;;;;;4.43;2.38;;;22.80;1.00;;;;;;5031774;28;20033;-56
2022/09/02 04:44:24;;;;;;;4.50;2.00;;;23.00;1.00;;;;;;5037786;28;20117;-55
2022/09/02 04:46:51;;;;;;;4.45;2.40;;;22.90;1.00;;;;;;5033428;28;20060;-53
2022/09/02 04:49:17;;;;;;;2.80;1.95;;;22.90;1.00;;;;;;5032556;28;20025;-55
2022/09/02 04:51:43;;;;;;;4.50;2.78;;;22.90;1.00;;;;;;5032501;28;20148;-55
2022/09/02 04:54:09;;;;;;;2.17;1.98;;;23.00;1.00;;;;;;5032317;28;20029;-55
2022/09/02 04:56:34;;;;;;;3.92;2.05;;;22.90;1.00;;;;;;5033319;28;20044;-53
2022/09/02 04:59:00;;;;;;;3.97;2.10;;;23.10;1.00;;;;;;5035390;28;20362;-54
2022/09/02 05:01:31;;;;;;;4.13;2.40;;;23.10;1.00;;;;;;5032462;28;20109;-54
2022/09/02 05:03:57;;;;;;;5.32;2.42;;;23.10;1.00;;;;;;5032405;28;20025;-56
2022/09/02 05:06:26;;;;;;;4.80;2.38;;;23.10;1.00;;;;;;5032214;28;20029;-52
2022/09/02 05:08:55;;;;;;;3.38;2.00;;;23.00;1.00;;;;;;5033584;28;20491;-55
2022/09/02 05:11:27;;;;;;;6.05;2.30;;;22.90;1.00;;;;;;5019832;28;20215;-53
2022/09/02 05:13:55;;;;;;;4.25;2.80;;;22.90;1.00;;;;;;5032240;28;20018;-55
2022/09/02 05:16:33;;;;;;;3.53;2.55;;;23.10;1.00;;;;;;5032790;28;20037;-52
2022/09/02 05:18:59;;;;;;;3.30;2.40;;;23.20;1.00;;;;;;5030667;28;20017;-56
2022/09/02 05:21:25;;;;;;;4.18;2.50;;;22.90;1.00;;;;;;5031123;28;20021;-54
2022/09/02 05:23:52;;;;;;;3.10;2.40;;;23.10;1.00;;;;;;5031947;28;20025;-56
2022/09/02 05:26:18;;;;;;;5.55;2.65;;;23.10;1.00;;;;;;5032168;28;20467;-54
2022/09/02 05:28:44;;;;;;;3.83;2.33;;;23.10;1.00;;;;;;5032168;28;20033;-54
2022/09/02 05:31:14;;;;;;;4.50;2.72;;;23.10;1.00;;;;;;5036185;28;20029;-51
2022/09/02 05:33:41;;;;;;;3.47;2.17;;;23.00;1.00;;;;;;5040576;28;20059;-51
2022/09/02 05:36:11;;;;;;;4.93;2.83;;;23.10;1.00;;;;;;5032494;28;20025;-59
2022/09/02 05:38:37;;;;;;;2.97;2.53;;;23.10;1.00;;;;;;5041271;28;20471;-51
2022/09/02 05:41:07;;;;;;;3.78;2.40;;;23.10;1.00;;;;;;5022479;28;20060;-54
2022/09/02 05:43:37;;;;;;;2.72;2.30;;;23.10;1.00;;;;;;5039891;28;20029;-57
2022/09/02 05:46:08;;;;;;;4.43;2.42;;;23.00;1.00;;;;;;5032670;28;20040;-58
2022/09/02 05:51:19;;;;;;;3.92;2.60;;;23.00;1.00;;;;;;5038058;28;20111;-57
2022/09/02 05:53:45;;;;;;;4.53;2.38;;;23.10;1.00;;;;;;5042269;28;20434;-55
2022/09/02 05:56:11;;;;;;;4.47;2.70;;;23.10;1.00;;;;;;5032257;28;20109;-57
2022/09/02 05:58:37;;;;;;;5.95;2.45;;;22.90;1.00;;;;;;5042734;28;20028;-57
2022/09/02 06:01:10;;;;;;;3.53;2.10;;;23.00;1.00;;;;;;5022199;28;20033;-57
2022/09/02 06:03:37;;;;;;;2.60;2.13;;;23.10;1.00;;;;;;5045441;28;20091;-57
2022/09/02 06:06:03;;;;;;;4.25;2.35;;;23.20;1.00;;;;;;5030752;28;20108;-56
2022/09/02 06:08:28;;;;;;;4.20;2.60;;;23.20;1.00;;;;;;5031097;28;20037;-57
2022/09/02 06:10:54;;;;;;;6.03;2.65;;;23.40;1.00;;;;;;5029148;28;20052;-56
2022/09/02 06:13:21;;;;;;;8.95;3.28;;;23.30;1.00;;;;;;5038887;28;20530;-55
2022/09/02 06:15:48;;;;;;;5.53;2.47;;;23.30;1.00;;;;;;5029753;28;20116;-56
2022/09/02 06:18:15;;;;;;;5.30;2.35;;;23.20;1.00;;;;;;5031288;28;20132;-56
2022/09/02 06:20:42;;;;;;;4.35;2.72;;;23.40;1.00;;;;;;5031709;28;20025;-56
2022/09/02 06:23:08;;;;;;;4.05;2.45;;;23.50;1.00;;;;;;5030971;28;20025;-55
2022/09/02 06:25:38;;;;;;;4.05;2.58;;;23.50;1.00;;;;;;5030410;28;20411;-54
2022/09/02 06:28:05;;;;;;;3.25;2.53;;;23.40;1.00;;;;;;5030721;28;20514;-56
2022/09/02 06:30:31;;;;;;;2.42;2.20;;;23.40;1.00;;;;;;5031572;28;20056;-54
2022/09/02 06:32:56;;;;;;;3.28;2.20;;;23.50;1.00;;;;;;5040078;28;20029;-56
2022/09/02 06:35:22;;;;;;;3.03;2.30;;;23.60;1.00;;;;;;5031776;28;20373;-55
2022/09/02 06:37:48;;;;;;;3.97;2.40;;;23.60;1.00;;;;;;5030749;28;20022;-55
2022/09/02 06:40:14;;;;;;;4.05;2.42;;;23.60;1.00;;;;;;5030911;28;20029;-55
2022/09/02 06:42:40;;;;;;;5.53;2.30;;;23.60;1.00;;;;;;5030680;28;20033;-52
2022/09/02 06:45:07;;;;;;;3.65;1.98;;;23.80;1.00;;;;;;5031544;28;20019;-50
2022/09/02 06:47:33;;;;;;;7.47;3.22;;;23.70;1.00;;;;;;5032565;28;20057;-53
2022/09/02 06:49:59;;;;;;;3.70;2.60;;;23.70;1.00;;;;;;5031079;28;20532;-53
2022/09/02 06:52:25;;;;;;;2.78;2.33;;;23.80;1.00;;;;;;5033007;28;20052;-50
2022/09/02 06:54:53;;;;;;;3.72;2.35;;;23.80;1.00;;;;;;5031612;28;20060;-52
2022/09/02 06:57:19;;;;;;;8.10;2.28;;;24.00;1.00;;;;;;5021236;28;20041;-54
2022/09/02 06:59:45;;;;;;;5.90;2.33;;;23.90;1.00;;;;;;5029620;28;20505;-55
2022/09/02 07:02:11;;;;;;;3.80;2.40;;;24.00;1.00;;;;;;5040712;28;20104;-55
2022/09/02 07:07:21;;;;;;;4.45;2.20;;;23.90;1.00;;;;;;5031509;28;20132;-54
2022/09/02 07:09:47;;;;;;;3.20;1.95;;;23.90;1.00;;;;;;5037959;28;20106;-55
2022/09/02 07:12:14;;;;;;;5.43;2.35;;;23.80;1.00;;;;;;5034509;28;20041;-56
2022/09/02 07:14:41;;;;;;;4.38;2.15;;;24.00;1.00;;;;;;5030625;28;20045;-56
2022/09/02 07:17:08;;;;;;;3.30;2.10;;;24.00;1.00;;;;;;5031433;28;20438;-54
2022/09/02 07:19:34;;;;;;;4.45;2.60;;;24.10;1.00;;;;;;5034924;28;20044;-56
2022/09/02 07:22:05;;;;;;;3.53;2.58;;;24.20;1.00;;;;;;5038034;28;20104;-54
2022/09/02 07:24:33;;;;;;;5.45;2.38;;;24.20;1.00;;;;;;5029751;28;20022;-55
2022/09/02 07:26:58;;;;;;;2.55;2.38;;;24.30;1.00;;;;;;5029920;28;20048;-56
2022/09/02 07:29:24;;;;;;;3.03;2.20;;;24.20;1.00;;;;;;5031781;28;20435;-55
2022/09/02 07:31:50;;;;;;;4.93;2.75;;;24.30;1.00;;;;;;5036507;28;20107;-55
2022/09/02 07:34:22;;;;;;;4.25;2.90;;;24.20;1.00;;;;;;5039383;28;20040;-55
2022/09/02 07:40:10;;;;;;;5.05;2.67;;;24.30;1.00;;;;;;5025717;28;20083;-56
2022/09/02 07:42:37;;;;;;;5.00;2.83;;;24.50;1.00;;;;;;5032960;28;20117;-55
2022/09/02 07:45:03;;;;;;;3.63;2.53;;;24.50;1.00;;;;;;5034085;28;20061;-54
2022/09/02 07:47:29;;;;;;;3.05;2.13;;;24.40;1.00;;;;;;5040691;28;20036;-54
2022/09/02 07:49:55;;;;;;;7.80;3.58;;;24.40;1.00;;;;;;5034244;28;20091;-54
2022/09/02 07:52:20;;;;;;;2.30;2.10;;;24.30;1.00;;;;;;5040519;28;20391;-53
2022/09/02 07:54:46;;;;;;;5.60;3.20;;;24.40;1.00;;;;;;5034337;28;20026;-55
2022/09/02 07:57:12;;;;;;;3.42;2.60;;;24.40;1.00;;;;;;5032846;28;20037;-55
2022/09/02 07:59:37;;;;;;;7.63;2.85;;;24.50;1.00;;;;;;5036714;28;20061;-56
2022/09/02 08:02:03;;;;;;;4.32;2.15;;;24.40;1.00;;;;;;5033723;28;20029;-54
2022/09/02 08:04:28;;;;;;;5.30;3.90;;;24.40;1.00;;;;;;5034168;28;20029;-56
2022/09/02 08:06:55;;;;;;;3.70;2.75;;;24.30;1.00;;;;;;5041828;28;20041;-56
2022/09/02 08:09:22;;;;;;;5.40;3.10;;;24.40;1.00;;;;;;5033978;28;20082;-56
2022/09/02 08:11:50;;;;;;;4.40;2.88;;;24.20;1.00;;;;;;5032183;28;20386;-55
2022/09/02 08:14:20;;;;;;;5.25;3.10;;;24.10;1.00;;;;;;5034024;28;20028;-57
2022/09/02 08:16:47;;;;;;;3.08;2.40;;;24.20;1.00;;;;;;5033076;28;20017;-56
2022/09/02 08:19:13;;;;;;;3.90;2.58;;;24.20;1.00;;;;;;5034343;28;20445;-57
2022/09/02 08:21:39;;;;;;;4.25;2.95;;;24.30;1.00;;;;;;5039254;28;20039;-55
2022/09/02 08:24:04;;;;;;;4.50;2.88;;;24.40;1.00;;;;;;5046279;28;20029;-58
2022/09/02 08:26:30;;;;;;;4.28;3.20;;;24.30;1.00;;;;;;5041136;28;20032;-55
2022/09/02 08:28:56;;;;;;;7.88;3.13;;;24.40;1.00;;;;;;5036345;28;20021;-55
2022/09/02 08:31:22;;;;;;;6.78;3.38;;;24.60;1.00;;;;;;5032978;28;20029;-56
2022/09/02 08:33:48;;;;;;;5.43;4.25;;;24.60;1.00;;;;;;5033901;28;20052;-56
2022/09/02 08:36:14;;;;;;;3.85;3.35;;;24.70;1.00;;;;;;5037599;28;20108;-54
2022/09/02 08:38:40;;;;;;;8.57;3.35;;;24.70;1.00;;;;;;5033779;28;20025;-56
2022/09/02 08:41:38;;;;;;;4.60;2.70;;;25.00;1.00;;;;;;5032805;28;20381;-56
2022/09/02 08:44:05;;;;;;;6.63;3.30;;;25.00;1.00;;;;;;5033581;28;20486;-57
2022/09/02 08:46:32;;;;;;;7.00;2.72;;;25.30;1.00;;;;;;5032467;28;20801;-57
2022/09/02 08:49:03;;;;;;;4.50;3.20;;;25.40;1.00;;;;;;5030322;28;20029;-57
2022/09/02 08:51:34;;;;;;;6.35;3.58;;;25.50;1.00;;;;;;5031113;28;20406;-56
2022/09/02 08:54:11;;;;;;;5.68;3.80;;;25.50;1.00;;;;;;5033253;28;20103;-56
2022/09/02 08:56:37;;;;;;;5.28;3.35;;;25.40;1.00;;;;;;5038784;28;20040;-56
2022/09/02 08:59:03;;;;;;;2.83;2.63;;;25.40;1.00;;;;;;5034467;28;20387;-57
2022/09/02 09:02:21;;;;;;;4.90;2.97;;;25.40;1.00;;;;;;5019531;28;20022;-55
2022/09/02 09:04:57;;;;;;;32.55;24.45;;;25.40;1.00;;;;;;5017388;28;20033;-57
2022/09/02 09:07:51;;;;;;;6.72;5.47;;;25.40;1.00;;;;;;5032388;28;20112;-56
2022/09/02 09:10:35;;;;;;;6.03;3.22;;;25.50;1.00;;;;;;5033040;28;20037;-56
2022/09/02 09:13:38;;;;;;;5.68;4.55;;;25.50;1.00;;;;;;5045718;28;20032;-53
2022/09/02 09:16:25;;;;;;;7.95;3.50;;;25.70;1.00;;;;;;5032126;28;20383;-57
2022/09/02 09:19:01;;;;;;;7.15;3.72;;;25.70;1.00;;;;;;5019274;28;20059;-56
2022/09/02 09:21:30;;;;;;;7.95;3.97;;;25.80;1.00;;;;;;5045552;28;20441;-55
2022/09/02 09:23:58;;;;;;;4.78;3.88;;;26.00;1.00;;;;;;5018796;28;20026;-55
2022/09/02 09:26:29;;;;;;;8.35;5.65;;;25.90;1.00;;;;;;5034249;28;20025;-56
2022/09/02 09:28:58;;;;;;;6.32;3.78;;;25.90;1.00;;;;;;5032139;28;20025;-57
2022/09/02 09:31:29;;;;;;;5.72;3.30;;;25.90;1.00;;;;;;5033790;28;20151;-56
2022/09/02 09:34:10;;;;;;;8.48;3.85;;;25.90;1.00;;;;;;5034675;28;20501;-58
2022/09/02 09:36:48;;;;;;;5.40;3.60;;;25.80;1.00;;;;;;5036244;28;20048;-55
2022/09/02 09:39:31;;;;;;;6.18;3.60;;;25.90;1.00;;;;;;5031803;28;20060;-57
2022/09/02 09:42:01;;;;;;;4.78;3.55;;;26.00;1.00;;;;;;5037120;28;20021;-57
2022/09/02 09:44:36;;;;;;;6.20;3.47;;;25.90;1.00;;;;;;5018966;28;20497;-56
2022/09/02 09:47:08;;;;;;;6.50;3.22;;;25.90;1.00;;;;;;5036085;28;20104;-55
2022/09/02 09:49:34;;;;;;;4.70;4.28;;;26.00;1.00;;;;;;5017025;28;20049;-56
2022/09/02 09:52:00;;;;;;;5.53;3.65;;;26.00;1.00;;;;;;5036072;28;20492;-56
2022/09/02 09:54:27;;;;;;;7.78;4.45;;;25.90;1.00;;;;;;5031626;28;20079;-55
2022/09/02 09:56:54;;;;;;;6.55;3.83;;;25.90;1.00;;;;;;5037775;28;20109;-57
2022/09/02 09:59:40;;;;;;;5.97;3.05;;;26.10;1.00;;;;;;5031815;28;20044;-56
2022/09/02 10:02:20;;;;;;;4.63;2.90;;;26.40;1.00;;;;;;5038405;28;20017;-56
2022/09/02 10:04:46;;;;;;;3.97;2.85;;;26.60;1.00;;;;;;5026651;28;20143;-56
2022/09/02 10:07:12;;;;;;;3.60;3.20;;;26.50;1.00;;;;;;5023011;28;20447;-57
2022/09/02 10:09:38;;;;;;;5.22;3.22;;;26.50;1.00;;;;;;5032069;28;20048;-54
2022/09/02 10:12:10;;;;;;;5.20;3.22;;;26.40;1.00;;;;;;5040253;28;20108;-55
2022/09/02 10:14:39;;;;;;;3.95;3.17;;;26.50;1.00;;;;;;5031766;28;20479;-51
2022/09/02 10:17:50;;;;;;;7.82;3.45;;;26.30;1.00;;;;;;5029660;28;20057;-55
2022/09/02 10:20:49;;;;;;;26.63;22.65;;;26.50;1.00;;;;;;5032327;28;20169;-52
2022/09/02 10:23:28;;;;;;;4.35;3.55;;;26.60;1.00;;;;;;5034755;28;20025;-55
2022/09/02 10:26:16;;;;;;;7.35;4.68;;;26.60;1.00;;;;;;5031280;28;20029;-55
2022/09/02 10:28:50;;;;;;;5.18;3.85;;;26.70;1.00;;;;;;5030728;28;20021;-55
2022/09/02 10:31:30;;;;;;;4.38;2.25;;;26.70;1.00;;;;;;5030717;28;20471;-54
2022/09/02 10:34:19;;;;;;;5.15;2.88;;;26.60;1.00;;;;;;5018902;28;20025;-55
2022/09/02 10:37:08;;;;;;;3.47;3.17;;;26.70;1.00;;;;;;5043262;28;20028;-50
2022/09/02 10:39:49;;;;;;;3.00;2.30;;;26.50;1.00;;;;;;5031891;28;20029;-55
2022/09/02 10:42:44;;;;;;;2.47;2.20;;;26.50;1.00;;;;;;5035275;28;20044;-53
2022/09/02 10:45:30;;;;;;;2.85;2.55;;;26.60;1.00;;;;;;5031618;28;20041;-52
2022/09/02 10:48:17;;;;;;;7.50;3.22;;;26.60;1.00;;;;;;5041440;28;20364;-53
2022/09/02 10:50:52;;;;;;;5.28;3.97;;;26.60;1.00;;;;;;5030458;28;20107;-55
2022/09/02 10:53:37;;;;;;;4.43;3.00;;;26.70;1.00;;;;;;5017747;28;20062;-55
2022/09/02 10:56:16;;;;;;;3.83;2.75;;;26.80;1.00;;;;;;5039544;28;20445;-58
2022/09/02 10:59:04;;;;;;;2.95;2.25;;;26.90;1.00;;;;;;5031435;28;20034;-55
2022/09/02 11:01:38;;;;;;;3.15;2.63;;;26.90;1.00;;;;;;5030519;28;20021;-57
2022/09/02 11:04:39;;;;;;;3.85;2.42;;;26.90;1.00;;;;;;5032717;28;20463;-58
2022/09/02 11:07:09;;;;;;;3.95;2.90;;;27.00;1.00;;;;;;5037920;28;20449;-58
2022/09/02 11:09:38;;;;;;;3.30;2.92;;;27.10;1.00;;;;;;5035233;28;20474;-58
2022/09/02 11:12:21;;;;;;;3.05;2.70;;;27.20;1.00;;;;;;5034238;28;20471;-57
2022/09/02 11:14:47;;;;;;;6.72;2.30;;;27.20;1.00;;;;;;5022224;28;20025;-57
2022/09/02 11:18:02;;;;;;;3.60;2.35;;;27.10;1.00;;;;;;5021111;28;20092;-58
2022/09/02 11:20:33;;;;;;;3.92;2.50;;;27.20;1.00;;;;;;5032928;28;20038;-58
2022/09/02 11:23:35;;;;;;;2.90;2.58;;;27.20;1.00;;;;;;5030321;28;20033;-58
2022/09/02 11:26:12;;;;;;;5.15;2.60;;;27.00;1.00;;;;;;5032878;28;20025;-58
2022/09/02 11:28:58;;;;;;;3.70;3.38;;;27.20;1.00;;;;;;5034755;28;20034;-56
2022/09/02 11:31:35;;;;;;;3.85;2.83;;;27.60;1.00;;;;;;5033599;28;20048;-57
2022/09/02 11:34:33;;;;;;;3.20;2.92;;;27.70;1.00;;;;;;5040799;28;20116;-57
2022/09/02 11:37:13;;;;;;;4.40;3.80;;;27.80;1.00;;;;;;5032693;28;20037;-55
2022/09/02 11:39:50;;;;;;;4.75;2.63;;;28.00;1.00;;;;;;5034688;28;20451;-58
2022/09/02 11:42:31;;;;;;;5.68;3.60;;;28.00;1.00;;;;;;5034905;28;20032;-58
2022/09/02 11:45:18;;;;;;;3.33;3.03;;;27.90;1.00;;;;;;5040617;28;20538;-58
2022/09/02 11:47:50;;;;;;;2.75;2.50;;;28.10;1.00;;;;;;5036987;28;20467;-57
2022/09/02 11:50:57;;;;;;;5.60;2.45;;;28.20;1.00;;;;;;5034238;28;20463;-57
2022/09/02 11:53:36;;;;;;;5.18;2.95;;;28.40;1.00;;;;;;5033312;28;20063;-58
2022/09/02 11:56:12;;;;;;;3.33;2.92;;;28.50;1.00;;;;;;5033523;28;20025;-58
2022/09/02 11:58:40;;;;;;;5.10;3.38;;;28.70;1.00;;;;;;5039702;28;20048;-57
2022/09/02 12:01:15;;;;;;;5.00;3.35;;;28.70;1.00;;;;;;5035491;28;20040;-58
2022/09/02 12:04:05;;;;;;;3.15;2.85;;;28.90;1.00;;;;;;5034146;28;20014;-57
2022/09/02 12:06:31;;;;;;;4.10;3.03;;;29.10;1.00;;;;;;5035192;28;20302;-57
2022/09/02 12:09:01;;;;;;;3.65;2.72;;;29.10;1.00;;;;;;5032716;28;20036;-57
2022/09/02 12:11:36;;;;;;;5.65;2.75;;;29.60;1.00;;;;;;5035463;28;20052;-58
2022/09/02 12:14:02;;;;;;;3.67;3.13;;;29.90;1.00;;;;;;5033950;28;20138;-58
2022/09/02 12:16:28;;;;;;;5.22;3.30;;;32.10;1.00;;;;;;5029339;28;20438;-57
2022/09/02 12:18:54;;;;;;;5.80;3.10;;;35.50;1.00;;;;;;5028734;28;20084;-57
2022/09/02 12:21:24;;;;;;;3.60;3.28;;;36.30;1.00;;;;;;5037297;28;20033;-56
2022/09/02 12:23:56;;;;;;;6.65;3.47;;;36.60;1.00;;;;;;5038026;28;20087;-57
2022/09/02 12:26:29;;;;;;;6.82;3.15;;;36.70;1.00;;;;;;5024227;28;20124;-55
2022/09/02 12:29:32;;;;;;;5.05;2.97;;;36.30;1.00;;;;;;5020046;28;20028;-57
2022/09/02 12:31:58;;;;;;;3.78;3.20;;;36.90;1.00;;;;;;4994482;28;20026;-58
2022/09/02 12:34:23;;;;;;;3.55;3.25;;;36.20;1.00;;;;;;5022621;28;20391;-56
2022/09/02 12:36:56;;;;;;;3.60;3.22;;;35.30;1.00;;;;;;5032875;28;20109;-58
2022/09/02 12:39:22;;;;;;;3.83;3.33;;;34.20;1.00;;;;;;5033661;28;20036;-57
2022/09/02 12:41:55;;;;;;;4.30;3.90;;;33.60;1.00;;;;;;5039177;28;20025;-56
2022/09/02 12:44:40;;;;;;;4.95;3.83;;;32.90;1.00;;;;;;5033749;28;20017;-57
2022/09/02 12:47:28;;;;;;;4.30;3.33;;;35.20;1.00;;;;;;5040045;28;20033;-57
2022/09/02 12:50:22;;;;;;;4.05;3.70;;;37.60;1.00;;;;;;5037463;28;20159;-58
2022/09/02 12:52:51;;;;;;;4.07;3.58;;;36.90;1.00;;;;;;5027813;28;20059;-58
2022/09/02 12:55:28;;;;;;;3.95;3.65;;;37.90;1.00;;;;;;5031912;28;20475;-57
2022/09/02 12:58:13;;;;;;;5.70;5.20;;;38.00;1.00;;;;;;5041205;28;20448;-56
2022/09/02 13:00:38;;;;;;;6.15;4.47;;;38.90;1.00;;;;;;5028911;28;20021;-58
2022/09/02 13:03:32;;;;;;;5.13;4.65;;;38.80;1.00;;;;;;5041456;28;20344;-58
2022/09/02 13:06:19;;;;;;;6.82;5.28;;;38.40;1.00;;;;;;5033064;28;20087;-55
2022/09/02 13:08:47;;;;;;;7.45;4.90;;;39.60;1.00;;;;;;5024137;28;20029;-58
2022/09/02 13:11:50;;;;;;;5.60;4.80;;;42.40;1.00;;;;;;5032166;28;20037;-57
2022/09/02 13:14:36;;;;;;;6.32;5.25;;;43.20;1.00;;;;;;5025365;28;20037;-58
2022/09/02 13:17:40;;;;;;;9.10;5.20;;;44.10;1.00;;;;;;5032154;28;20041;-58
2022/09/02 13:20:22;;;;;;;5.63;5.30;;;45.60;1.00;;;;;;5019677;28;20029;-57
2022/09/02 13:23:08;;;;;;;7.82;4.97;;;45.80;1.00;;;;;;5041650;28;20033;-59
2022/09/02 13:26:08;;;;;;;6.35;5.10;;;45.70;1.00;;;;;;5032638;28;20029;-58
2022/09/02 13:28:46;;;;;;;5.28;4.97;;;45.30;1.00;;;;;;5044041;28;20181;-59
2022/09/02 13:31:15;;;;;;;5.75;5.28;;;45.80;1.00;;;;;;5032462;28;20034;-58